createdAt,value
2022-09-20T18:20:43.355Z,8.28
2022-09-20T18:23:10.053Z,8.26
2022-09-20T18:25:56.591Z,8.24
2022-09-20T18:28:23.279Z,8.20
2022-09-20T18:31:00.197Z,8.16
2022-09-20T18:33:26.837Z,8.16
2022-09-20T18:35:59.399Z,8.10
2022-09-20T18:38:26.021Z,8.02
2022-09-20T18:41:00.902Z,8.00
2022-09-20T18:43:29.976Z,7.96
2022-09-20T18:45:57.714Z,7.98
2022-09-20T18:48:28.108Z,7.97
2022-09-20T18:51:03.175Z,7.86
2022-09-20T18:53:32.475Z,7.78
2022-09-20T18:56:22.955Z,7.71
2022-09-20T18:58:55.414Z,7.73
2022-09-20T19:01:28.158Z,7.72
2022-09-20T19:04:01.837Z,7.71
2022-09-20T19:06:33.519Z,7.68
2022-09-20T19:09:06.531Z,7.72
2022-09-20T19:11:38.607Z,7.69
2022-09-20T19:14:28.640Z,7.65
2022-09-20T19:17:00.251Z,7.71
2022-09-20T19:19:59.333Z,7.68
2022-09-20T19:22:57.142Z,7.76
2022-09-20T19:25:39.360Z,7.79
2022-09-20T19:28:07.533Z,7.86
2022-09-20T19:30:34.567Z,7.90
2022-09-20T19:33:02.811Z,8.09
2022-09-20T19:35:34.780Z,8.12
2022-09-20T19:39:00.129Z,8.27
2022-09-20T19:41:49.066Z,8.29
2022-09-20T19:44:36.162Z,8.24
2022-09-20T19:47:19.651Z,8.37
2022-09-20T19:49:56.736Z,8.33
2022-09-20T19:52:24.173Z,8.34
2022-09-20T19:54:51.581Z,8.45
2022-09-20T19:57:33.746Z,8.60
2022-09-20T20:00:00.605Z,8.47
2022-09-20T20:02:27.360Z,8.57
2022-09-20T20:04:54.114Z,8.55
2022-09-20T20:07:32.143Z,8.50
2022-09-20T20:10:19.046Z,8.48
2022-09-20T20:13:03.381Z,8.47
2022-09-20T20:15:47.341Z,8.35
2022-09-20T20:18:21.036Z,8.28
2022-09-20T20:20:52.566Z,8.37
2022-09-20T20:23:40.573Z,8.48
2022-09-20T20:26:20.803Z,8.49
2022-09-20T20:28:47.753Z,8.42
2022-09-20T20:31:14.797Z,8.36
2022-09-20T20:33:41.439Z,8.47
2022-09-20T20:36:08.974Z,8.49
2022-09-20T20:38:39.362Z,8.49
2022-09-20T20:41:09.923Z,8.50
2022-09-20T20:43:39.309Z,8.65
2022-09-20T20:46:07.904Z,8.48
2022-09-20T20:48:35.615Z,8.57
2022-09-20T20:51:04.531Z,8.38
2022-09-20T20:53:32.928Z,8.49
2022-09-20T20:56:01.513Z,8.39
2022-09-20T20:58:34.654Z,8.22
2022-09-20T21:01:08.722Z,8.17
2022-09-20T21:03:35.521Z,8.37
2022-09-20T21:06:04.458Z,8.41
2022-09-20T21:08:35.859Z,8.40
2022-09-20T21:11:05.798Z,8.38
2022-09-20T21:13:32.959Z,8.52
2022-09-20T21:16:20.715Z,8.42
2022-09-20T21:18:48.329Z,8.48
2022-09-20T21:21:14.874Z,8.47
2022-09-20T21:23:41.501Z,8.58
2022-09-20T21:26:10.828Z,8.46
2022-09-20T21:28:40.367Z,8.60
2022-09-20T21:31:08.577Z,8.48
2022-09-20T21:33:37.661Z,8.33
2022-09-20T21:36:05.162Z,8.38
2022-09-20T21:38:34.566Z,8.48
2022-09-20T21:41:23.871Z,8.52
2022-09-20T21:43:55.442Z,8.25
2022-09-20T21:46:25.329Z,8.26
2022-09-20T21:48:51.939Z,8.26
2022-09-20T21:51:20.358Z,8.38
2022-09-20T21:53:48.315Z,8.28
2022-09-20T21:56:17.516Z,8.58
2022-09-20T21:58:45.926Z,8.54
2022-09-20T22:01:14.890Z,8.60
2022-09-20T22:03:52.532Z,8.49
2022-09-20T22:06:24.253Z,8.42
2022-09-20T22:08:53.161Z,8.52
2022-09-20T22:11:20.886Z,8.57
2022-09-20T22:13:49.183Z,8.71
2022-09-20T22:16:18.966Z,8.56
2022-09-20T22:18:46.850Z,8.56
2022-09-20T22:21:21.332Z,8.66
2022-09-20T22:24:00.809Z,8.53
2022-09-20T22:26:30.465Z,8.59
2022-09-20T22:28:57.506Z,8.39
2022-09-20T22:31:26.438Z,8.35
2022-09-20T22:33:55.967Z,8.38
2022-09-20T22:36:30.825Z,8.38
2022-09-20T22:38:57.546Z,8.45
2022-09-20T22:41:24.297Z,8.28
2022-09-20T22:43:50.874Z,8.33
2022-09-20T22:46:22.929Z,8.46
2022-09-20T22:48:49.689Z,8.36
2022-09-20T22:51:24.573Z,8.31
2022-09-20T22:53:52.701Z,8.24
2022-09-20T22:56:21.608Z,8.12
2022-09-20T22:58:49.974Z,8.22
2022-09-20T23:01:24.489Z,8.19
2022-09-20T23:04:06.066Z,8.32
2022-09-20T23:06:54.969Z,8.38
2022-09-20T23:09:23.971Z,8.20
2022-09-20T23:11:50.821Z,8.24
2022-09-20T23:14:19.458Z,8.21
2022-09-20T23:16:46.892Z,8.21
2022-09-20T23:19:14.491Z,8.34
2022-09-20T23:21:42.557Z,8.42
2022-09-20T23:24:11.112Z,8.43
2022-09-20T23:26:39.215Z,8.30
2022-09-20T23:29:08.154Z,8.27
2022-09-20T23:31:37.089Z,8.26
2022-09-20T23:34:05.910Z,8.20
2022-09-20T23:36:34.576Z,8.18
2022-09-20T23:39:01.143Z,8.33
2022-09-20T23:41:28.337Z,8.51
2022-09-20T23:43:55.232Z,8.53
2022-09-20T23:46:23.143Z,8.42
2022-09-20T23:48:52.612Z,8.43
2022-09-20T23:51:22.683Z,8.34
2022-09-20T23:53:49.849Z,8.47
2022-09-20T23:56:16.747Z,8.43
2022-09-20T23:58:44.270Z,8.50
